createdAt,value
2022-11-16T00:00:24.351Z,7.82
2022-11-16T00:03:05.604Z,7.87
2022-11-16T00:05:36.738Z,7.84
2022-11-16T00:08:07.511Z,7.93
2022-11-16T00:10:40.275Z,7.96
2022-11-16T00:13:11.318Z,7.97
2022-11-16T00:15:41.273Z,7.90
2022-11-16T00:18:11.650Z,7.78
2022-11-16T00:20:41.971Z,7.98
2022-11-16T00:23:12.301Z,7.89
2022-11-16T00:25:44.885Z,7.83
2022-11-16T00:28:15.258Z,7.76
2022-11-16T00:30:45.314Z,7.83
2022-11-16T00:33:18.032Z,7.78
2022-11-16T00:35:48.013Z,7.80
2022-11-16T00:38:18.437Z,7.59
2022-11-16T00:40:51.399Z,7.78
2022-11-16T00:43:21.765Z,7.84
2022-11-16T00:45:51.788Z,7.91
2022-11-16T00:48:22.511Z,7.88
2022-11-16T00:50:52.556Z,7.85
2022-11-16T00:53:23.434Z,7.80
2022-11-16T00:55:56.080Z,7.89
2022-11-16T00:58:26.653Z,7.95
2022-11-16T01:00:56.697Z,7.86
2022-11-16T01:03:27.051Z,7.77
2022-11-16T01:06:03.349Z,7.86
2022-11-16T01:08:33.989Z,7.80
2022-11-16T01:11:19.385Z,7.73
2022-11-16T01:13:50.205Z,7.73
2022-11-16T01:16:22.119Z,7.70
2022-11-16T01:18:54.134Z,7.67
2022-11-16T01:21:25.319Z,7.63
2022-11-16T01:23:55.782Z,7.73
2022-11-16T01:26:28.527Z,7.64
2022-11-16T01:29:00.580Z,7.66
2022-11-16T01:31:30.555Z,7.66
2022-11-16T01:34:00.931Z,7.54
2022-11-16T01:36:30.928Z,7.59
2022-11-16T01:39:01.441Z,7.45
2022-11-16T01:41:34.041Z,7.51
2022-11-16T01:44:07.040Z,7.69
2022-11-16T01:46:37.004Z,7.67
2022-11-16T01:49:10.962Z,7.58
2022-11-16T01:51:42.594Z,7.60
2022-11-16T01:54:16.497Z,7.56
2022-11-16T01:56:53.360Z,7.49
2022-11-16T01:59:24.353Z,7.60
2022-11-16T02:01:54.594Z,7.69
2022-11-16T02:04:25.506Z,7.54
2022-11-16T02:07:04.870Z,7.48
2022-11-16T02:10:01.235Z,7.40
2022-11-16T02:12:58.769Z,7.52
2022-11-16T02:15:34.391Z,7.59
2022-11-16T02:18:18.420Z,7.70
2022-11-16T02:21:03.885Z,7.66
2022-11-16T02:24:03.976Z,7.60
2022-11-16T02:27:07.942Z,7.59
2022-11-16T02:29:45.169Z,7.55
2022-11-16T02:32:19.884Z,7.44
2022-11-16T02:34:53.872Z,7.28
2022-11-16T02:40:38.997Z,7.27
2022-11-16T02:43:12.592Z,7.40
2022-11-16T02:45:48.978Z,7.30
2022-11-16T02:48:25.462Z,7.36
2022-11-16T02:50:56.672Z,7.26
2022-11-16T02:53:28.666Z,7.31
2022-11-16T02:56:02.515Z,7.41
2022-11-16T02:58:33.584Z,7.28
2022-11-16T03:01:11.376Z,7.29
2022-11-16T03:03:46.567Z,7.12
2022-11-16T03:06:20.863Z,7.30
2022-11-16T03:09:03.873Z,7.34
2022-11-16T03:11:48.822Z,7.26
2022-11-16T03:14:23.398Z,6.83
2022-11-16T03:16:59.801Z,6.96
2022-11-16T03:19:37.524Z,6.99
2022-11-16T03:22:13.043Z,6.87
2022-11-16T03:24:44.533Z,6.87
2022-11-16T03:27:26.123Z,6.98
2022-11-16T03:30:04.556Z,7.06
2022-11-16T03:32:48.100Z,7.12
2022-11-16T03:35:23.863Z,7.07
2022-11-16T03:37:59.037Z,7.12
2022-11-16T03:40:33.158Z,6.96
2022-11-16T03:43:04.593Z,7.01
2022-11-16T03:45:35.777Z,7.04
2022-11-16T03:48:09.801Z,6.93
2022-11-16T03:50:40.811Z,6.95
2022-11-16T03:53:10.737Z,6.98
2022-11-16T03:55:44.486Z,6.97
2022-11-16T03:58:18.689Z,7.03
2022-11-16T04:00:49.293Z,6.98
2022-11-16T04:03:22.797Z,6.88
2022-11-16T04:06:05.752Z,6.93
2022-11-16T04:08:48.192Z,6.74
2022-11-16T04:11:34.418Z,6.72
2022-11-16T04:14:16.800Z,6.81
2022-11-16T04:16:59.521Z,6.59
2022-11-16T04:19:58.245Z,6.68
2022-11-16T04:22:46.152Z,6.66
2022-11-16T04:25:21.241Z,6.72
2022-11-16T04:28:04.335Z,6.76
2022-11-16T04:30:57.074Z,6.72
2022-11-16T04:33:39.987Z,6.85
2022-11-16T04:36:25.245Z,6.60
2022-11-16T04:38:55.563Z,6.67
2022-11-16T04:41:37.906Z,6.89
2022-11-16T04:44:08.296Z,6.87
2022-11-16T04:46:50.679Z,6.82
2022-11-16T04:49:20.957Z,6.77
2022-11-16T04:51:53.490Z,6.73
2022-11-16T04:54:23.915Z,6.74
2022-11-16T04:56:53.922Z,6.68
2022-11-16T04:59:24.237Z,6.77
2022-11-16T05:02:06.606Z,6.78
2022-11-16T05:04:36.913Z,6.67
2022-11-16T05:07:12.023Z,6.70
2022-11-16T05:09:43.454Z,6.79
2022-11-16T05:12:14.896Z,6.84
2022-11-16T05:14:46.027Z,6.71
2022-11-16T05:17:17.649Z,6.85
2022-11-16T05:20:00.807Z,6.76
2022-11-16T05:22:33.615Z,6.72
2022-11-16T05:25:04.459Z,6.74
2022-11-16T05:27:34.690Z,6.70
2022-11-16T05:30:05.261Z,6.59
2022-11-16T05:32:35.501Z,6.65
2022-11-16T05:35:06.273Z,6.71
2022-11-16T05:37:39.144Z,6.81
2022-11-16T05:40:11.095Z,6.69
2022-11-16T05:42:41.096Z,6.81
2022-11-16T05:45:14.909Z,6.79
2022-11-16T05:47:48.418Z,6.87
2022-11-16T05:50:19.170Z,6.83
2022-11-16T05:52:51.734Z,6.95
2022-11-16T05:55:22.044Z,7.02
2022-11-16T05:57:52.035Z,6.94
2022-11-16T06:00:22.940Z,7.00
2022-11-16T06:02:52.994Z,6.94
2022-11-16T06:05:23.340Z,6.98
2022-11-16T06:07:56.007Z,6.85
2022-11-16T06:10:26.252Z,6.92
2022-11-16T06:12:56.389Z,6.95
2022-11-16T06:15:26.777Z,6.83
2022-11-16T06:17:56.733Z,6.87
2022-11-16T06:20:27.060Z,6.92
2022-11-16T06:22:59.750Z,6.94
2022-11-16T06:25:30.884Z,7.02
2022-11-16T06:28:06.628Z,7.05
2022-11-16T06:30:38.500Z,7.06
2022-11-16T06:33:08.912Z,6.89
2022-11-16T06:35:39.223Z,6.99
2022-11-16T06:38:13.725Z,7.04
2022-11-16T06:40:44.033Z,7.00
2022-11-16T06:43:14.548Z,7.05
2022-11-16T06:45:45.069Z,7.03
2022-11-16T06:48:15.040Z,7.10
2022-11-16T06:50:45.394Z,7.10
2022-11-16T06:53:18.287Z,7.11
2022-11-16T06:55:48.869Z,6.94
2022-11-16T06:58:19.056Z,6.88
2022-11-16T07:00:49.404Z,7.01
2022-11-16T07:03:19.339Z,7.03
2022-11-16T07:05:49.559Z,7.09
2022-11-16T07:08:22.310Z,7.11
2022-11-16T07:10:52.642Z,7.16
2022-11-16T07:13:22.626Z,7.16
2022-11-16T07:15:52.938Z,7.06
2022-11-16T07:18:22.945Z,7.09
2022-11-16T07:20:53.263Z,7.03
2022-11-16T07:23:25.896Z,6.98
2022-11-16T07:25:56.147Z,7.04
2022-11-16T07:28:26.133Z,7.03
2022-11-16T07:30:56.543Z,7.06
2022-11-16T07:33:26.521Z,7.06
2022-11-16T07:35:57.122Z,7.02
2022-11-16T07:38:29.744Z,6.87
2022-11-16T07:41:03.076Z,6.94
2022-11-16T07:43:35.142Z,6.87
2022-11-16T07:46:44.800Z,6.88
2022-11-16T07:48:56.697Z,6.96
2022-11-16T07:51:27.622Z,7.03
2022-11-16T07:54:00.841Z,6.95
2022-11-16T07:56:31.321Z,6.91
2022-11-16T07:59:02.421Z,6.96
2022-11-16T08:01:33.356Z,6.84
2022-11-16T08:04:04.487Z,6.88
2022-11-16T08:06:35.013Z,6.85
2022-11-16T08:09:07.716Z,6.94
2022-11-16T08:11:38.305Z,7.01
2022-11-16T08:14:08.444Z,7.08
2022-11-16T08:16:38.851Z,7.06
2022-11-16T08:19:09.065Z,7.04
2022-11-16T08:21:48.442Z,7.06
2022-11-16T08:24:20.975Z,7.16
2022-11-16T08:26:51.403Z,7.15
2022-11-16T08:29:21.598Z,6.98
2022-11-16T08:31:54.966Z,7.04
2022-11-16T08:34:24.935Z,6.95
2022-11-16T08:36:56.099Z,6.96
2022-11-16T08:39:28.667Z,6.91
2022-11-16T08:41:59.686Z,6.99
2022-11-16T08:44:31.508Z,6.90
2022-11-16T08:47:01.901Z,6.98
2022-11-16T08:49:31.891Z,6.91
2022-11-16T08:52:02.308Z,6.85
2022-11-16T08:54:34.905Z,6.73
2022-11-16T08:57:05.274Z,6.82
2022-11-16T08:59:35.205Z,6.85
2022-11-16T09:02:06.037Z,6.87
2022-11-16T09:04:37.310Z,6.89
2022-11-16T09:07:13.653Z,6.93
2022-11-16T09:09:46.813Z,6.97
2022-11-16T09:12:17.825Z,6.86
2022-11-16T09:14:47.792Z,6.80
2022-11-16T09:17:22.954Z,6.81
2022-11-16T09:19:53.328Z,6.86
2022-11-16T09:22:23.863Z,6.76
2022-11-16T09:24:56.414Z,6.74
2022-11-16T09:27:27.061Z,6.80
2022-11-16T09:29:57.110Z,6.86
2022-11-16T09:32:27.464Z,6.82
2022-11-16T09:34:57.732Z,6.75
2022-11-16T09:37:28.382Z,6.79
2022-11-16T09:40:00.878Z,6.83
2022-11-16T09:42:53.699Z,6.79
2022-11-16T09:45:31.847Z,6.67
2022-11-16T09:48:06.456Z,6.75
2022-11-16T09:50:45.047Z,6.79
2022-11-16T09:53:28.604Z,6.76
2022-11-16T09:56:05.600Z,6.82
2022-11-16T09:58:43.546Z,6.78
2022-11-16T10:01:23.997Z,6.84
2022-11-16T10:04:02.776Z,6.89
2022-11-16T10:06:44.550Z,6.80
2022-11-16T10:09:15.810Z,6.79
2022-11-16T10:11:59.174Z,6.67
2022-11-16T10:14:54.669Z,6.70
2022-11-16T10:17:35.079Z,6.73
2022-11-16T10:20:19.678Z,6.65
2022-11-16T10:22:59.392Z,6.72
2022-11-16T10:25:35.871Z,6.63
2022-11-16T10:28:32.132Z,6.63
2022-11-16T10:31:09.740Z,6.67
2022-11-16T10:33:41.414Z,6.70
2022-11-16T10:36:16.155Z,6.69
2022-11-16T10:38:47.763Z,6.70
2022-11-16T10:41:22.554Z,6.72
2022-11-16T10:43:56.002Z,6.62
2022-11-16T10:46:30.917Z,6.63
2022-11-16T10:49:07.578Z,6.63
2022-11-16T10:51:37.885Z,6.56
2022-11-16T10:54:15.268Z,6.59
2022-11-16T10:56:48.037Z,6.56
2022-11-16T10:59:22.214Z,6.68
2022-11-16T11:01:53.970Z,6.57
2022-11-16T11:04:26.828Z,6.69
2022-11-16T11:06:59.313Z,6.68
2022-11-16T11:09:31.775Z,6.66
2022-11-16T11:12:28.116Z,6.80
2022-11-16T11:15:27.155Z,6.48
2022-11-16T11:18:14.218Z,6.56
2022-11-16T11:20:46.986Z,6.59
2022-11-16T11:23:20.568Z,6.58
2022-11-16T11:25:56.476Z,6.54
2022-11-16T11:28:30.102Z,6.59
2022-11-16T11:31:06.616Z,6.56
2022-11-16T11:33:39.056Z,6.62
2022-11-16T11:36:14.782Z,6.64
2022-11-16T11:38:59.336Z,6.63
2022-11-16T11:41:35.159Z,6.62
2022-11-16T11:44:07.352Z,6.67
2022-11-16T11:47:28.756Z,6.65
2022-11-16T11:49:38.663Z,6.70
2022-11-16T11:52:17.351Z,6.61
2022-11-16T11:54:49.450Z,6.68
2022-11-16T11:57:24.970Z,6.74
2022-11-16T11:59:57.306Z,6.72
2022-11-16T12:02:45.415Z,6.68
2022-11-16T12:05:37.354Z,6.67
2022-11-16T12:08:24.126Z,6.69
2022-11-16T12:11:03.116Z,6.49
2022-11-16T12:13:49.135Z,6.63
2022-11-16T12:16:29.739Z,6.58
2022-11-16T12:19:19.648Z,6.65
2022-11-16T12:22:03.989Z,6.65
2022-11-16T12:25:03.227Z,6.65
2022-11-16T12:27:42.540Z,6.52
2022-11-16T12:30:16.155Z,6.54
2022-11-16T12:33:08.096Z,6.69
2022-11-16T12:35:55.793Z,6.66
2022-11-16T12:38:37.611Z,6.71
2022-11-16T12:41:31.534Z,6.68
2022-11-16T12:44:03.831Z,6.74
2022-11-16T12:46:43.054Z,6.74
2022-11-16T12:49:38.479Z,6.77
2022-11-16T12:52:28.489Z,6.80
2022-11-16T12:55:25.781Z,6.93
2022-11-16T12:58:13.062Z,6.87
2022-11-16T13:00:55.721Z,6.75
2022-11-16T13:03:33.853Z,6.81
2022-11-16T13:06:07.873Z,6.88
2022-11-16T13:08:53.556Z,6.83
2022-11-16T13:11:28.410Z,6.83
2022-11-16T13:14:02.570Z,6.80
2022-11-16T13:16:33.494Z,6.81
2022-11-16T13:19:06.289Z,6.73
2022-11-16T13:21:48.572Z,6.67
2022-11-16T13:24:46.762Z,6.73
2022-11-16T13:27:31.443Z,6.77
2022-11-16T13:30:06.699Z,6.78
2022-11-16T13:32:52.062Z,6.97
2022-11-16T13:35:23.984Z,6.80
2022-11-16T13:37:54.560Z,6.80
2022-11-16T13:40:32.273Z,6.73
2022-11-16T13:43:08.723Z,6.70
2022-11-16T13:45:42.830Z,6.71
2022-11-16T13:48:21.810Z,6.72
2022-11-16T13:50:58.819Z,6.65
2022-11-16T13:56:29.261Z,6.72
2022-11-16T13:59:01.270Z,6.72
2022-11-16T14:01:59.504Z,6.75
2022-11-16T14:04:45.078Z,6.74
2022-11-16T14:07:31.747Z,6.74
2022-11-16T14:10:05.628Z,6.74
2022-11-16T14:13:04.325Z,6.75
2022-11-16T14:15:37.275Z,6.73
2022-11-16T14:18:37.344Z,6.76
2022-11-16T14:21:20.008Z,6.75
2022-11-16T14:24:05.148Z,6.76
2022-11-16T14:26:47.518Z,6.79
2022-11-16T14:29:36.703Z,6.73
2022-11-16T14:32:20.299Z,6.77
2022-11-16T14:34:53.335Z,6.70
2022-11-16T14:37:37.371Z,6.66
2022-11-16T14:40:11.683Z,6.76
2022-11-16T14:45:50.105Z,6.71
2022-11-16T14:48:22.727Z,6.78
2022-11-16T14:51:04.511Z,6.74
2022-11-16T14:53:38.167Z,6.72
2022-11-16T14:56:11.212Z,6.71
2022-11-16T14:58:42.351Z,6.69
2022-11-16T15:01:17.800Z,6.71
2022-11-16T15:03:56.797Z,6.65
2022-11-16T15:06:29.532Z,6.67
2022-11-16T15:09:04.580Z,6.70
2022-11-16T15:11:49.066Z,6.70
2022-11-16T15:14:22.986Z,6.61
2022-11-16T15:16:57.959Z,6.67
2022-11-16T15:19:32.084Z,6.66
2022-11-16T15:22:04.211Z,6.61
2022-11-16T15:24:36.247Z,6.54
2022-11-16T15:27:21.743Z,6.54
2022-11-16T15:29:52.496Z,6.62
2022-11-16T15:32:25.386Z,6.67
2022-11-16T15:35:02.484Z,6.62
2022-11-16T15:37:35.168Z,6.57
2022-11-16T15:40:06.128Z,6.53
2022-11-16T15:42:36.704Z,6.53
2022-11-16T15:45:15.751Z,6.54
2022-11-16T15:47:49.539Z,6.45
2022-11-16T15:50:23.203Z,6.58
2022-11-16T15:53:03.112Z,6.51
2022-11-16T15:55:37.714Z,6.58
2022-11-16T15:58:17.830Z,6.56
2022-11-16T16:00:51.119Z,6.59
2022-11-16T16:03:27.724Z,6.50
2022-11-16T16:05:58.701Z,6.51
2022-11-16T16:08:34.305Z,6.50
2022-11-16T16:11:12.790Z,6.44
2022-11-16T16:13:45.274Z,6.38
2022-11-16T16:16:32.229Z,6.45
2022-11-16T16:19:09.948Z,6.48
2022-11-16T16:21:46.484Z,6.45
2022-11-16T16:24:42.178Z,6.40
2022-11-16T16:27:18.669Z,6.36
2022-11-16T16:29:50.214Z,6.36
2022-11-16T16:32:27.025Z,6.35
2022-11-16T16:35:01.741Z,6.36
2022-11-16T16:37:35.772Z,6.36
2022-11-16T16:40:07.449Z,6.35
2022-11-16T16:42:38.141Z,6.37
2022-11-16T16:45:15.000Z,6.39
2022-11-16T16:47:45.573Z,6.32
2022-11-16T16:50:19.589Z,6.34
2022-11-16T16:52:50.241Z,6.38
2022-11-16T16:55:20.583Z,6.33
2022-11-16T16:57:51.316Z,6.34
2022-11-16T17:00:21.705Z,6.27
2022-11-16T17:02:52.028Z,6.33
2022-11-16T17:05:24.802Z,6.28
2022-11-16T17:07:57.858Z,6.33
2022-11-16T17:10:28.228Z,6.35
2022-11-16T17:12:59.118Z,6.34
2022-11-16T17:15:29.362Z,6.37
2022-11-16T17:18:01.015Z,6.24
2022-11-16T17:20:33.832Z,6.26
2022-11-16T17:23:04.494Z,6.33
2022-11-16T17:25:34.882Z,6.34
2022-11-16T17:28:05.291Z,6.31
2022-11-16T17:30:35.476Z,6.31
2022-11-16T17:33:05.825Z,6.27
2022-11-16T17:35:38.413Z,6.31
2022-11-16T17:38:09.841Z,6.34
2022-11-16T17:40:39.812Z,6.27
2022-11-16T17:43:10.086Z,6.31
2022-11-16T17:45:40.030Z,6.31
2022-11-16T17:48:10.286Z,6.33
2022-11-16T17:50:42.844Z,6.30
2022-11-16T17:53:13.124Z,6.32
2022-11-16T17:55:43.264Z,6.32
2022-11-16T17:58:13.663Z,6.30
2022-11-16T18:00:43.731Z,6.29
2022-11-16T18:03:14.087Z,6.29
2022-11-16T18:05:46.745Z,6.27
2022-11-16T18:08:17.080Z,6.24
2022-11-16T18:10:47.072Z,6.23
2022-11-16T18:13:17.387Z,6.27
2022-11-16T18:15:47.376Z,6.26
2022-11-16T18:18:19.334Z,6.16
2022-11-16T18:20:52.313Z,6.19
2022-11-16T18:23:22.536Z,6.24
2022-11-16T18:25:52.458Z,6.25
2022-11-16T18:28:22.730Z,6.26
2022-11-16T18:30:53.208Z,6.29
2022-11-16T18:33:27.808Z,6.27
2022-11-16T18:36:02.841Z,6.22
2022-11-16T18:38:33.373Z,6.18
2022-11-16T18:41:08.561Z,6.25
2022-11-16T18:43:38.862Z,6.25
2022-11-16T18:46:08.885Z,6.14
2022-11-16T18:48:40.634Z,6.10
2022-11-16T18:51:13.806Z,6.12
2022-11-16T18:53:44.230Z,6.23
2022-11-16T18:56:14.448Z,6.24
2022-11-16T18:58:53.525Z,6.19
2022-11-16T19:01:26.078Z,6.09
2022-11-16T19:03:58.471Z,6.17
2022-11-16T19:06:34.765Z,6.15
2022-11-16T19:09:09.580Z,6.18
2022-11-16T19:11:39.865Z,6.16
2022-11-16T19:14:10.638Z,6.18
2022-11-16T19:16:48.994Z,6.16
2022-11-16T19:19:22.050Z,6.14
2022-11-16T19:21:56.388Z,6.14
2022-11-16T19:24:27.032Z,6.11
2022-11-16T19:26:57.260Z,6.11
2022-11-16T19:29:28.247Z,6.15
2022-11-16T19:31:58.890Z,6.18
2022-11-16T19:34:33.312Z,6.16
2022-11-16T19:37:06.361Z,6.14
2022-11-16T19:39:36.616Z,6.15
2022-11-16T19:42:07.048Z,6.16
2022-11-16T19:44:37.398Z,6.13
2022-11-16T19:47:07.779Z,6.06
2022-11-16T19:49:38.142Z,6.09
2022-11-16T19:52:10.711Z,6.11
2022-11-16T19:54:41.035Z,6.08
2022-11-16T19:57:11.530Z,6.09
2022-11-16T19:59:41.810Z,6.07
2022-11-16T20:02:12.158Z,6.09
2022-11-16T20:04:42.477Z,6.06
2022-11-16T20:07:18.070Z,6.10
2022-11-16T20:09:53.248Z,6.17
2022-11-16T20:12:23.461Z,6.12
2022-11-16T20:14:54.016Z,6.15
2022-11-16T20:17:23.933Z,6.20
2022-11-16T20:19:54.234Z,6.14
2022-11-16T20:22:26.836Z,6.11
2022-11-16T20:24:57.413Z,6.09
2022-11-16T20:27:27.431Z,6.08
2022-11-16T20:29:57.739Z,6.11
2022-11-16T20:32:28.012Z,6.12
2022-11-16T20:34:58.350Z,6.04
2022-11-16T20:37:30.902Z,6.04
2022-11-16T20:40:01.229Z,6.03
2022-11-16T20:42:31.157Z,6.05
2022-11-16T20:45:01.479Z,6.04
2022-11-16T20:47:31.520Z,6.03
2022-11-16T20:50:03.202Z,6.03
2022-11-16T20:52:41.133Z,6.05
2022-11-16T20:55:13.106Z,5.90
2022-11-16T20:57:43.123Z,6.05
2022-11-16T21:00:15.281Z,6.12
2022-11-16T21:02:45.318Z,6.07
2022-11-16T21:05:15.615Z,6.03
2022-11-16T21:07:48.145Z,5.98
2022-11-16T21:10:22.232Z,5.97
2022-11-16T21:13:04.630Z,5.94
2022-11-16T21:15:35.022Z,6.02
2022-11-16T21:18:05.129Z,6.09
2022-11-16T21:20:35.383Z,5.97
2022-11-16T21:23:08.254Z,5.90
2022-11-16T21:25:38.564Z,5.90
2022-11-16T21:28:08.498Z,5.93
2022-11-16T21:30:38.823Z,5.87
2022-11-16T21:33:09.102Z,5.93
2022-11-16T21:35:39.785Z,5.92
2022-11-16T21:38:12.662Z,5.87
2022-11-16T21:40:43.432Z,5.93
2022-11-16T21:43:15.023Z,5.88
2022-11-16T21:45:45.735Z,5.83
2022-11-16T21:48:16.574Z,5.77
2022-11-16T21:50:47.298Z,5.81
2022-11-16T21:53:19.886Z,5.85
2022-11-16T21:55:51.589Z,5.85
2022-11-16T21:58:21.573Z,5.73
2022-11-16T22:00:51.969Z,5.70
2022-11-16T22:03:21.939Z,5.74
2022-11-16T22:06:11.620Z,5.75
2022-11-16T22:08:44.583Z,5.72
2022-11-16T22:11:15.597Z,5.68
2022-11-16T22:13:46.062Z,5.61
2022-11-16T22:16:17.783Z,5.64
2022-11-16T22:18:47.833Z,5.64
2022-11-16T22:21:18.174Z,5.67
2022-11-16T22:23:50.743Z,5.76
2022-11-16T22:26:21.265Z,5.67
2022-11-16T22:28:51.262Z,5.58
2022-11-16T22:31:21.725Z,5.57
2022-11-16T22:33:55.451Z,5.61
2022-11-16T22:36:25.754Z,5.59
2022-11-16T22:38:59.097Z,5.47
2022-11-16T22:41:29.379Z,5.51
2022-11-16T22:43:59.376Z,5.51
2022-11-16T22:46:29.726Z,5.49
2022-11-16T22:48:59.740Z,5.47
2022-11-16T22:51:31.787Z,5.53
2022-11-16T22:54:05.685Z,5.35
2022-11-16T22:56:36.875Z,5.40
2022-11-16T22:59:09.737Z,5.44
2022-11-16T23:01:40.561Z,5.43
2022-11-16T23:04:10.560Z,5.53
2022-11-16T23:06:41.205Z,5.46
2022-11-16T23:09:14.954Z,5.41
2022-11-16T23:11:57.642Z,5.40
2022-11-16T23:14:42.658Z,5.39
2022-11-16T23:17:13.057Z,5.32
2022-11-16T23:19:55.414Z,5.29
2022-11-16T23:22:38.171Z,5.21
2022-11-16T23:25:26.900Z,5.27
2022-11-16T23:28:01.179Z,5.21
2022-11-16T23:30:31.131Z,5.15
2022-11-16T23:33:01.835Z,5.18
2022-11-16T23:35:31.900Z,5.10
2022-11-16T23:38:03.784Z,5.05
2022-11-16T23:40:38.916Z,4.96
2022-11-16T23:43:24.674Z,5.07
2022-11-16T23:45:54.618Z,5.11
2022-11-16T23:48:25.229Z,4.97
2022-11-16T23:50:55.465Z,4.96
2022-11-16T23:53:26.111Z,4.89
2022-11-16T23:56:06.185Z,4.95
2022-11-16T23:58:37.033Z,4.92
